sensor_id;sensor_type;location;lat;lon;timestamp;P1;durP1;ratioP1;P2;durP2;ratioP2
78143;SDS011;67394;52.522;13.622;2024-03-02T00:00:04;18.23;;;10.13;;
78143;SDS011;67394;52.522;13.622;2024-03-02T00:02:43;22.63;;;10.40;;
78143;SDS011;67394;52.522;13.622;2024-03-02T00:05:12;16.77;;;10.13;;
78143;SDS011;67394;52.522;13.622;2024-03-02T00:07:45;23.50;;;10.70;;
78143;SDS011;67394;52.522;13.622;2024-03-02T00:10:16;20.88;;;9.32;;
78143;SDS011;67394;52.522;13.622;2024-03-02T00:12:46;21.05;;;11.20;;
78143;SDS011;67394;52.522;13.622;2024-03-02T00:17:56;18.92;;;9.68;;
78143;SDS011;67394;52.522;13.622;2024-03-02T00:20:25;13.75;;;9.40;;
78143;SDS011;67394;52.522;13.622;2024-03-02T00:23:01;21.05;;;10.73;;
78143;SDS011;67394;52.522;13.622;2024-03-02T00:26:13;16.65;;;9.13;;
78143;SDS011;67394;52.522;13.622;2024-03-02T00:28:25;13.65;;;9.75;;
78143;SDS011;67394;52.522;13.622;2024-03-02T00:31:01;18.17;;;10.75;;
78143;SDS011;67394;52.522;13.622;2024-03-02T00:33:44;14.40;;;9.18;;
78143;SDS011;67394;52.522;13.622;2024-03-02T00:36:13;16.20;;;8.95;;
78143;SDS011;67394;52.522;13.622;2024-03-02T00:41:16;19.55;;;9.73;;
78143;SDS011;67394;52.522;13.622;2024-03-02T00:46:17;22.25;;;10.60;;
78143;SDS011;67394;52.522;13.622;2024-03-02T00:48:51;15.05;;;7.90;;
78143;SDS011;67394;52.522;13.622;2024-03-02T00:51:24;16.88;;;9.75;;
78143;SDS011;67394;52.522;13.622;2024-03-02T00:53:52;14.95;;;8.75;;
78143;SDS011;67394;52.522;13.622;2024-03-02T00:56:19;16.00;;;10.20;;
78143;SDS011;67394;52.522;13.622;2024-03-02T00:58:46;17.65;;;9.30;;
78143;SDS011;67394;52.522;13.622;2024-03-02T01:01:13;18.77;;;9.80;;
78143;SDS011;67394;52.522;13.622;2024-03-02T01:03:39;16.05;;;9.25;;
78143;SDS011;67394;52.522;13.622;2024-03-02T01:06:06;16.35;;;9.93;;
78143;SDS011;67394;52.522;13.622;2024-03-02T01:08:33;21.13;;;9.13;;
78143;SDS011;67394;52.522;13.622;2024-03-02T01:11:01;19.85;;;9.90;;
78143;SDS011;67394;52.522;13.622;2024-03-02T01:13:28;17.17;;;10.57;;
78143;SDS011;67394;52.522;13.622;2024-03-02T01:15:55;17.58;;;9.35;;
78143;SDS011;67394;52.522;13.622;2024-03-02T01:18:23;16.05;;;9.98;;
78143;SDS011;67394;52.522;13.622;2024-03-02T01:20:50;16.67;;;10.32;;
78143;SDS011;67394;52.522;13.622;2024-03-02T01:23:19;20.63;;;10.32;;
78143;SDS011;67394;52.522;13.622;2024-03-02T01:25:49;18.45;;;10.88;;
78143;SDS011;67394;52.522;13.622;2024-03-02T01:28:17;20.40;;;9.95;;
78143;SDS011;67394;52.522;13.622;2024-03-02T01:30:44;15.70;;;9.10;;
78143;SDS011;67394;52.522;13.622;2024-03-02T01:35:38;16.02;;;9.73;;
78143;SDS011;67394;52.522;13.622;2024-03-02T01:38:05;17.48;;;10.07;;
78143;SDS011;67394;52.522;13.622;2024-03-02T01:40:33;22.67;;;12.45;;
78143;SDS011;67394;52.522;13.622;2024-03-02T01:43:00;32.15;;;12.00;;
78143;SDS011;67394;52.522;13.622;2024-03-02T01:45:27;22.70;;;9.90;;
78143;SDS011;67394;52.522;13.622;2024-03-02T01:47:55;18.38;;;10.55;;
78143;SDS011;67394;52.522;13.622;2024-03-02T01:50:29;22.23;;;9.85;;
78143;SDS011;67394;52.522;13.622;2024-03-02T01:52:57;27.25;;;12.77;;
78143;SDS011;67394;52.522;13.622;2024-03-02T01:55:25;19.73;;;10.68;;
78143;SDS011;67394;52.522;13.622;2024-03-02T01:57:52;21.48;;;10.65;;
78143;SDS011;67394;52.522;13.622;2024-03-02T02:02:46;16.70;;;9.50;;
78143;SDS011;67394;52.522;13.622;2024-03-02T02:05:14;14.82;;;7.97;;
78143;SDS011;67394;52.522;13.622;2024-03-02T02:07:41;18.58;;;11.13;;
78143;SDS011;67394;52.522;13.622;2024-03-02T02:10:09;13.63;;;9.23;;
78143;SDS011;67394;52.522;13.622;2024-03-02T02:12:36;20.05;;;9.65;;
78143;SDS011;67394;52.522;13.622;2024-03-02T02:15:26;19.75;;;11.63;;
78143;SDS011;67394;52.522;13.622;2024-03-02T02:17:57;15.65;;;9.00;;
78143;SDS011;67394;52.522;13.622;2024-03-02T02:20:25;20.65;;;10.32;;
78143;SDS011;67394;52.522;13.622;2024-03-02T02:23:13;21.52;;;10.98;;
78143;SDS011;67394;52.522;13.622;2024-03-02T02:25:39;22.98;;;12.05;;
78143;SDS011;67394;52.522;13.622;2024-03-02T02:28:05;26.08;;;11.80;;
78143;SDS011;67394;52.522;13.622;2024-03-02T02:30:32;23.52;;;10.48;;
78143;SDS011;67394;52.522;13.622;2024-03-02T02:32:59;16.35;;;10.00;;
78143;SDS011;67394;52.522;13.622;2024-03-02T02:35:26;21.30;;;12.38;;
78143;SDS011;67394;52.522;13.622;2024-03-02T02:37:54;19.23;;;11.23;;
78143;SDS011;67394;52.522;13.622;2024-03-02T02:40:21;18.80;;;10.07;;
78143;SDS011;67394;52.522;13.622;2024-03-02T02:42:48;21.70;;;13.50;;
78143;SDS011;67394;52.522;13.622;2024-03-02T02:45:15;21.27;;;11.88;;
78143;SDS011;67394;52.522;13.622;2024-03-02T02:47:42;24.75;;;12.35;;
78143;SDS011;67394;52.522;13.622;2024-03-02T02:50:11;20.52;;;11.40;;
78143;SDS011;67394;52.522;13.622;2024-03-02T02:52:39;17.98;;;11.68;;
78143;SDS011;67394;52.522;13.622;2024-03-02T02:55:08;20.75;;;12.35;;
78143;SDS011;67394;52.522;13.622;2024-03-02T02:57:36;19.02;;;11.13;;
78143;SDS011;67394;52.522;13.622;2024-03-02T03:00:05;19.23;;;11.02;;
78143;SDS011;67394;52.522;13.622;2024-03-02T03:02:33;17.58;;;11.07;;
78143;SDS011;67394;52.522;13.622;2024-03-02T03:05:00;18.48;;;10.75;;
78143;SDS011;67394;52.522;13.622;2024-03-02T03:07:27;26.42;;;11.27;;
78143;SDS011;67394;52.522;13.622;2024-03-02T03:09:53;21.35;;;11.23;;
78143;SDS011;67394;52.522;13.622;2024-03-02T03:12:20;18.85;;;11.73;;
78143;SDS011;67394;52.522;13.622;2024-03-02T03:14:47;18.35;;;10.32;;
78143;SDS011;67394;52.522;13.622;2024-03-02T03:17:13;17.10;;;11.43;;
78143;SDS011;67394;52.522;13.622;2024-03-02T03:19:40;19.45;;;10.52;;
78143;SDS011;67394;52.522;13.622;2024-03-02T03:22:06;17.80;;;11.73;;
78143;SDS011;67394;52.522;13.622;2024-03-02T03:24:33;18.45;;;10.98;;
78143;SDS011;67394;52.522;13.622;2024-03-02T03:26:59;22.05;;;11.75;;
78143;SDS011;67394;52.522;13.622;2024-03-02T03:29:26;17.25;;;9.75;;
78143;SDS011;67394;52.522;13.622;2024-03-02T03:31:53;18.05;;;10.25;;
78143;SDS011;67394;52.522;13.622;2024-03-02T03:34:19;24.48;;;10.95;;
78143;SDS011;67394;52.522;13.622;2024-03-02T03:36:46;18.48;;;10.13;;
78143;SDS011;67394;52.522;13.622;2024-03-02T03:39:13;19.90;;;11.27;;
78143;SDS011;67394;52.522;13.622;2024-03-02T03:41:40;14.18;;;9.75;;
78143;SDS011;67394;52.522;13.622;2024-03-02T03:44:06;23.05;;;10.32;;
78143;SDS011;67394;52.522;13.622;2024-03-02T03:46:33;22.25;;;10.93;;
78143;SDS011;67394;52.522;13.622;2024-03-02T03:49:00;24.55;;;11.32;;
78143;SDS011;67394;52.522;13.622;2024-03-02T03:51:27;16.90;;;9.57;;
78143;SDS011;67394;52.522;13.622;2024-03-02T03:53:53;19.17;;;8.93;;
78143;SDS011;67394;52.522;13.622;2024-03-02T03:56:20;19.13;;;9.70;;
78143;SDS011;67394;52.522;13.622;2024-03-02T03:58:47;15.63;;;9.55;;
78143;SDS011;67394;52.522;13.622;2024-03-02T04:01:13;17.75;;;9.45;;
78143;SDS011;67394;52.522;13.622;2024-03-02T04:03:40;19.55;;;9.93;;
78143;SDS011;67394;52.522;13.622;2024-03-02T04:06:07;20.08;;;11.13;;
78143;SDS011;67394;52.522;13.622;2024-03-02T04:08:33;20.35;;;10.40;;
78143;SDS011;67394;52.522;13.622;2024-03-02T04:11:00;17.25;;;8.52;;
78143;SDS011;67394;52.522;13.622;2024-03-02T04:13:27;21.90;;;11.32;;
78143;SDS011;67394;52.522;13.622;2024-03-02T04:15:53;16.90;;;8.85;;
78143;SDS011;67394;52.522;13.622;2024-03-02T04:18:20;19.02;;;10.57;;
78143;SDS011;67394;52.522;13.622;2024-03-02T04:20:46;16.08;;;7.97;;
78143;SDS011;67394;52.522;13.622;2024-03-02T04:23:16;18.98;;;9.05;;
78143;SDS011;67394;52.522;13.622;2024-03-02T04:25:42;20.35;;;11.35;;
78143;SDS011;67394;52.522;13.622;2024-03-02T04:28:10;16.92;;;9.85;;
78143;SDS011;67394;52.522;13.622;2024-03-02T04:30:37;17.80;;;10.40;;
78143;SDS011;67394;52.522;13.622;2024-03-02T04:33:03;15.13;;;8.45;;
78143;SDS011;67394;52.522;13.622;2024-03-02T04:35:30;15.13;;;8.68;;
78143;SDS011;67394;52.522;13.622;2024-03-02T04:37:57;15.23;;;9.65;;
78143;SDS011;67394;52.522;13.622;2024-03-02T04:40:24;13.77;;;8.00;;
78143;SDS011;67394;52.522;13.622;2024-03-02T04:42:50;11.55;;;8.13;;
78143;SDS011;67394;52.522;13.622;2024-03-02T04:45:17;14.38;;;7.45;;
78143;SDS011;67394;52.522;13.622;2024-03-02T04:47:43;20.65;;;9.68;;
78143;SDS011;67394;52.522;13.622;2024-03-02T04:50:14;12.27;;;8.85;;
78143;SDS011;67394;52.522;13.622;2024-03-02T04:52:41;16.23;;;9.40;;
78143;SDS011;67394;52.522;13.622;2024-03-02T04:55:07;13.98;;;8.55;;
78143;SDS011;67394;52.522;13.622;2024-03-02T04:57:34;19.00;;;9.07;;
78143;SDS011;67394;52.522;13.622;2024-03-02T05:00:01;12.75;;;7.47;;
78143;SDS011;67394;52.522;13.622;2024-03-02T05:02:28;15.32;;;9.57;;
78143;SDS011;67394;52.522;13.622;2024-03-02T05:04:54;17.77;;;9.18;;
78143;SDS011;67394;52.522;13.622;2024-03-02T05:07:22;10.93;;;7.35;;
78143;SDS011;67394;52.522;13.622;2024-03-02T05:09:49;15.73;;;9.05;;
78143;SDS011;67394;52.522;13.622;2024-03-02T05:12:16;15.45;;;9.20;;
78143;SDS011;67394;52.522;13.622;2024-03-02T05:14:42;19.75;;;9.82;;
78143;SDS011;67394;52.522;13.622;2024-03-02T05:17:10;15.73;;;8.85;;
78143;SDS011;67394;52.522;13.622;2024-03-02T05:19:37;18.13;;;8.82;;
78143;SDS011;67394;52.522;13.622;2024-03-02T05:22:03;16.45;;;9.00;;
78143;SDS011;67394;52.522;13.622;2024-03-02T05:24:30;15.23;;;8.30;;
78143;SDS011;67394;52.522;13.622;2024-03-02T05:26:57;20.33;;;10.13;;
78143;SDS011;67394;52.522;13.622;2024-03-02T05:29:24;14.30;;;9.32;;
78143;SDS011;67394;52.522;13.622;2024-03-02T05:31:50;12.65;;;8.68;;
78143;SDS011;67394;52.522;13.622;2024-03-02T05:34:17;14.98;;;8.35;;
78143;SDS011;67394;52.522;13.622;2024-03-02T05:36:43;16.52;;;8.63;;
78143;SDS011;67394;52.522;13.622;2024-03-02T05:39:10;15.25;;;9.55;;
78143;SDS011;67394;52.522;13.622;2024-03-02T05:41:36;16.25;;;9.10;;
78143;SDS011;67394;52.522;13.622;2024-03-02T05:44:04;18.48;;;9.43;;
78143;SDS011;67394;52.522;13.622;2024-03-02T05:46:30;19.83;;;9.05;;
78143;SDS011;67394;52.522;13.622;2024-03-02T05:48:57;13.52;;;7.78;;
78143;SDS011;67394;52.522;13.622;2024-03-02T05:51:24;17.73;;;9.40;;
78143;SDS011;67394;52.522;13.622;2024-03-02T05:53:51;15.55;;;8.68;;
78143;SDS011;67394;52.522;13.622;2024-03-02T05:56:17;18.90;;;9.27;;
78143;SDS011;67394;52.522;13.622;2024-03-02T05:58:44;14.15;;;8.35;;
78143;SDS011;67394;52.522;13.622;2024-03-02T06:01:10;15.02;;;8.27;;
78143;SDS011;67394;52.522;13.622;2024-03-02T06:03:37;14.57;;;9.52;;
78143;SDS011;67394;52.522;13.622;2024-03-02T06:06:04;17.60;;;10.10;;
78143;SDS011;67394;52.522;13.622;2024-03-02T06:08:31;14.57;;;9.55;;
78143;SDS011;67394;52.522;13.622;2024-03-02T06:10:57;22.92;;;10.13;;
78143;SDS011;67394;52.522;13.622;2024-03-02T06:13:25;13.90;;;8.25;;
78143;SDS011;67394;52.522;13.622;2024-03-02T06:15:52;21.08;;;9.23;;
78143;SDS011;67394;52.522;13.622;2024-03-02T06:18:19;15.43;;;9.45;;
78143;SDS011;67394;52.522;13.622;2024-03-02T06:20:46;16.48;;;9.88;;
78143;SDS011;67394;52.522;13.622;2024-03-02T06:23:12;21.63;;;10.40;;
78143;SDS011;67394;52.522;13.622;2024-03-02T06:25:39;17.58;;;9.95;;
78143;SDS011;67394;52.522;13.622;2024-03-02T06:28:05;17.60;;;8.68;;
78143;SDS011;67394;52.522;13.622;2024-03-02T06:30:32;15.70;;;8.93;;
78143;SDS011;67394;52.522;13.622;2024-03-02T06:32:59;17.13;;;9.45;;
78143;SDS011;67394;52.522;13.622;2024-03-02T06:35:25;15.60;;;8.23;;
78143;SDS011;67394;52.522;13.622;2024-03-02T06:37:52;11.77;;;8.02;;
78143;SDS011;67394;52.522;13.622;2024-03-02T06:40:19;19.23;;;9.45;;
78143;SDS011;67394;52.522;13.622;2024-03-02T06:42:45;17.02;;;9.50;;
78143;SDS011;67394;52.522;13.622;2024-03-02T06:45:12;14.40;;;8.63;;
78143;SDS011;67394;52.522;13.622;2024-03-02T06:47:39;19.42;;;9.25;;
78143;SDS011;67394;52.522;13.622;2024-03-02T06:50:06;16.80;;;9.38;;
78143;SDS011;67394;52.522;13.622;2024-03-02T06:52:33;16.20;;;9.55;;
78143;SDS011;67394;52.522;13.622;2024-03-02T06:54:59;17.13;;;10.77;;
78143;SDS011;67394;52.522;13.622;2024-03-02T06:57:26;25.40;;;14.10;;
78143;SDS011;67394;52.522;13.622;2024-03-02T06:59:53;19.65;;;10.80;;
78143;SDS011;67394;52.522;13.622;2024-03-02T07:02:19;17.83;;;10.80;;
78143;SDS011;67394;52.522;13.622;2024-03-02T07:04:46;18.98;;;9.65;;
78143;SDS011;67394;52.522;13.622;2024-03-02T07:07:13;16.38;;;9.18;;
78143;SDS011;67394;52.522;13.622;2024-03-02T07:09:39;14.65;;;9.27;;
78143;SDS011;67394;52.522;13.622;2024-03-02T07:12:06;15.45;;;8.75;;
78143;SDS011;67394;52.522;13.622;2024-03-02T07:14:33;18.13;;;11.38;;
78143;SDS011;67394;52.522;13.622;2024-03-02T07:16:59;17.25;;;9.50;;
78143;SDS011;67394;52.522;13.622;2024-03-02T07:19:26;16.55;;;9.45;;
78143;SDS011;67394;52.522;13.622;2024-03-02T07:21:53;16.08;;;9.07;;
78143;SDS011;67394;52.522;13.622;2024-03-02T07:24:20;18.42;;;9.90;;
78143;SDS011;67394;52.522;13.622;2024-03-02T07:26:47;18.17;;;8.93;;
78143;SDS011;67394;52.522;13.622;2024-03-02T07:29:17;14.07;;;9.30;;
78143;SDS011;67394;52.522;13.622;2024-03-02T07:31:44;15.65;;;9.82;;
78143;SDS011;67394;52.522;13.622;2024-03-02T07:34:11;18.73;;;9.98;;
78143;SDS011;67394;52.522;13.622;2024-03-02T07:36:39;30.02;;;12.18;;
78143;SDS011;67394;52.522;13.622;2024-03-02T07:39:06;19.38;;;9.82;;
78143;SDS011;67394;52.522;13.622;2024-03-02T07:41:33;16.75;;;9.23;;
78143;SDS011;67394;52.522;13.622;2024-03-02T07:43:59;14.80;;;9.18;;
78143;SDS011;67394;52.522;13.622;2024-03-02T07:46:26;26.65;;;9.20;;
78143;SDS011;67394;52.522;13.622;2024-03-02T07:48:52;16.25;;;9.43;;
78143;SDS011;67394;52.522;13.622;2024-03-02T07:51:19;17.88;;;7.78;;
78143;SDS011;67394;52.522;13.622;2024-03-02T07:53:46;24.95;;;10.18;;
78143;SDS011;67394;52.522;13.622;2024-03-02T07:58:39;15.45;;;8.65;;
78143;SDS011;67394;52.522;13.622;2024-03-02T08:01:06;18.42;;;10.63;;
78143;SDS011;67394;52.522;13.622;2024-03-02T08:03:32;17.35;;;9.18;;
78143;SDS011;67394;52.522;13.622;2024-03-02T08:05:59;22.75;;;10.15;;
78143;SDS011;67394;52.522;13.622;2024-03-02T08:08:26;14.02;;;9.82;;
78143;SDS011;67394;52.522;13.622;2024-03-02T08:10:53;17.73;;;9.55;;
78143;SDS011;67394;52.522;13.622;2024-03-02T08:13:20;20.23;;;11.40;;
78143;SDS011;67394;52.522;13.622;2024-03-02T08:15:46;16.38;;;9.02;;
78143;SDS011;67394;52.522;13.622;2024-03-02T08:18:13;20.60;;;9.60;;
78143;SDS011;67394;52.522;13.622;2024-03-02T08:20:40;22.92;;;12.05;;
78143;SDS011;67394;52.522;13.622;2024-03-02T08:23:07;17.63;;;8.80;;
78143;SDS011;67394;52.522;13.622;2024-03-02T08:25:33;21.75;;;11.35;;
78143;SDS011;67394;52.522;13.622;2024-03-02T08:28:01;23.90;;;10.70;;
78143;SDS011;67394;52.522;13.622;2024-03-02T08:30:28;15.45;;;10.82;;
78143;SDS011;67394;52.522;13.622;2024-03-02T08:32:54;18.15;;;10.25;;
78143;SDS011;67394;52.522;13.622;2024-03-02T08:35:21;17.98;;;8.90;;
78143;SDS011;67394;52.522;13.622;2024-03-02T08:37:49;18.35;;;11.70;;
78143;SDS011;67394;52.522;13.622;2024-03-02T08:40:16;26.63;;;10.85;;
78143;SDS011;67394;52.522;13.622;2024-03-02T08:42:44;19.27;;;12.43;;
78143;SDS011;67394;52.522;13.622;2024-03-02T08:45:13;15.25;;;10.82;;
78143;SDS011;67394;52.522;13.622;2024-03-02T08:47:39;17.73;;;9.32;;
78143;SDS011;67394;52.522;13.622;2024-03-02T08:50:06;22.42;;;11.95;;
78143;SDS011;67394;52.522;13.622;2024-03-02T08:52:34;22.88;;;11.45;;
78143;SDS011;67394;52.522;13.622;2024-03-02T08:55:01;16.38;;;9.45;;
78143;SDS011;67394;52.522;13.622;2024-03-02T08:57:27;20.10;;;11.57;;
78143;SDS011;67394;52.522;13.622;2024-03-02T08:59:54;20.45;;;11.55;;
78143;SDS011;67394;52.522;13.622;2024-03-02T09:02:22;22.33;;;9.70;;
78143;SDS011;67394;52.522;13.622;2024-03-02T09:04:49;15.20;;;9.07;;
78143;SDS011;67394;52.522;13.622;2024-03-02T09:07:16;20.35;;;9.18;;
78143;SDS011;67394;52.522;13.622;2024-03-02T09:09:43;18.15;;;11.68;;
78143;SDS011;67394;52.522;13.622;2024-03-02T09:12:09;20.52;;;11.98;;
78143;SDS011;67394;52.522;13.622;2024-03-02T09:14:36;21.88;;;11.80;;
78143;SDS011;67394;52.522;13.622;2024-03-02T09:17:03;24.13;;;10.82;;
78143;SDS011;67394;52.522;13.622;2024-03-02T09:19:30;21.83;;;10.20;;
78143;SDS011;67394;52.522;13.622;2024-03-02T09:21:56;20.10;;;10.75;;
78143;SDS011;67394;52.522;13.622;2024-03-02T09:24:23;21.35;;;9.80;;
78143;SDS011;67394;52.522;13.622;2024-03-02T09:26:51;21.95;;;10.57;;
78143;SDS011;67394;52.522;13.622;2024-03-02T09:29:23;21.30;;;11.57;;
78143;SDS011;67394;52.522;13.622;2024-03-02T09:31:50;26.35;;;12.77;;
78143;SDS011;67394;52.522;13.622;2024-03-02T09:34:17;19.80;;;10.40;;
78143;SDS011;67394;52.522;13.622;2024-03-02T09:36:44;21.25;;;11.10;;
78143;SDS011;67394;52.522;13.622;2024-03-02T09:39:10;23.05;;;11.93;;
78143;SDS011;67394;52.522;13.622;2024-03-02T09:41:37;22.05;;;10.57;;
78143;SDS011;67394;52.522;13.622;2024-03-02T09:44:04;25.58;;;11.07;;
78143;SDS011;67394;52.522;13.622;2024-03-02T09:46:31;19.40;;;10.77;;
78143;SDS011;67394;52.522;13.622;2024-03-02T09:48:58;18.25;;;10.93;;
78143;SDS011;67394;52.522;13.622;2024-03-02T09:51:24;25.65;;;11.65;;
78143;SDS011;67394;52.522;13.622;2024-03-02T09:56:23;17.15;;;10.65;;
78143;SDS011;67394;52.522;13.622;2024-03-02T09:58:50;18.80;;;9.15;;
78143;SDS011;67394;52.522;13.622;2024-03-02T10:01:16;19.52;;;10.82;;
78143;SDS011;67394;52.522;13.622;2024-03-02T10:03:44;24.10;;;12.38;;
78143;SDS011;67394;52.522;13.622;2024-03-02T10:06:21;23.85;;;11.13;;
78143;SDS011;67394;52.522;13.622;2024-03-02T10:08:54;19.20;;;10.80;;
78143;SDS011;67394;52.522;13.622;2024-03-02T10:11:26;21.08;;;9.82;;
78143;SDS011;67394;52.522;13.622;2024-03-02T10:14:13;18.63;;;8.75;;
78143;SDS011;67394;52.522;13.622;2024-03-02T10:16:40;20.85;;;10.15;;
78143;SDS011;67394;52.522;13.622;2024-03-02T10:19:20;17.13;;;8.77;;
78143;SDS011;67394;52.522;13.622;2024-03-02T10:21:50;19.08;;;9.10;;
78143;SDS011;67394;52.522;13.622;2024-03-02T10:24:18;16.30;;;9.35;;
78143;SDS011;67394;52.522;13.622;2024-03-02T10:26:45;20.30;;;9.95;;
78143;SDS011;67394;52.522;13.622;2024-03-02T10:29:12;21.30;;;9.65;;
78143;SDS011;67394;52.522;13.622;2024-03-02T10:31:40;15.13;;;7.72;;
78143;SDS011;67394;52.522;13.622;2024-03-02T10:34:08;14.85;;;8.18;;
78143;SDS011;67394;52.522;13.622;2024-03-02T10:36:36;14.65;;;7.50;;
78143;SDS011;67394;52.522;13.622;2024-03-02T10:39:03;16.67;;;7.50;;
78143;SDS011;67394;52.522;13.622;2024-03-02T10:41:37;13.82;;;7.35;;
78143;SDS011;67394;52.522;13.622;2024-03-02T10:44:05;17.85;;;8.75;;
78143;SDS011;67394;52.522;13.622;2024-03-02T10:46:34;14.93;;;7.32;;
78143;SDS011;67394;52.522;13.622;2024-03-02T10:49:03;10.20;;;6.30;;
78143;SDS011;67394;52.522;13.622;2024-03-02T10:51:34;14.25;;;7.32;;
78143;SDS011;67394;52.522;13.622;2024-03-02T10:54:02;9.32;;;5.95;;
78143;SDS011;67394;52.522;13.622;2024-03-02T10:56:34;12.95;;;6.95;;
78143;SDS011;67394;52.522;13.622;2024-03-02T11:01:50;12.00;;;6.10;;
78143;SDS011;67394;52.522;13.622;2024-03-02T11:04:31;11.07;;;6.45;;
78143;SDS011;67394;52.522;13.622;2024-03-02T11:09:33;11.73;;;6.72;;
78143;SDS011;67394;52.522;13.622;2024-03-02T11:12:16;11.45;;;6.07;;
78143;SDS011;67394;52.522;13.622;2024-03-02T11:14:49;12.70;;;6.85;;
78143;SDS011;67394;52.522;13.622;2024-03-02T11:17:17;13.15;;;7.13;;
78143;SDS011;67394;52.522;13.622;2024-03-02T11:19:45;13.88;;;6.68;;
78143;SDS011;67394;52.522;13.622;2024-03-02T11:22:14;14.45;;;7.45;;
78143;SDS011;67394;52.522;13.622;2024-03-02T11:24:51;14.48;;;6.97;;
78143;SDS011;67394;52.522;13.622;2024-03-02T11:33:01;12.63;;;7.05;;
78143;SDS011;67394;52.522;13.622;2024-03-02T11:35:29;13.77;;;5.80;;
78143;SDS011;67394;52.522;13.622;2024-03-02T11:37:56;10.93;;;5.75;;
78143;SDS011;67394;52.522;13.622;2024-03-02T11:40:24;13.07;;;6.03;;
78143;SDS011;67394;52.522;13.622;2024-03-02T11:42:52;12.80;;;6.15;;
78143;SDS011;67394;52.522;13.622;2024-03-02T11:45:26;10.20;;;6.10;;
78143;SDS011;67394;52.522;13.622;2024-03-02T11:47:53;8.77;;;5.22;;
78143;SDS011;67394;52.522;13.622;2024-03-02T11:55:27;11.35;;;7.05;;
78143;SDS011;67394;52.522;13.622;2024-03-02T11:57:56;12.02;;;6.38;;
78143;SDS011;67394;52.522;13.622;2024-03-02T12:00:25;11.35;;;5.60;;
78143;SDS011;67394;52.522;13.622;2024-03-02T12:02:59;15.60;;;6.60;;
78143;SDS011;67394;52.522;13.622;2024-03-02T12:05:38;9.98;;;6.28;;
78143;SDS011;67394;52.522;13.622;2024-03-02T12:08:06;8.88;;;4.57;;
78143;SDS011;67394;52.522;13.622;2024-03-02T12:10:34;9.32;;;5.03;;
78143;SDS011;67394;52.522;13.622;2024-03-02T12:13:03;8.55;;;5.40;;
78143;SDS011;67394;52.522;13.622;2024-03-02T12:15:33;8.68;;;4.20;;
78143;SDS011;67394;52.522;13.622;2024-03-02T12:18:01;11.43;;;4.95;;
78143;SDS011;67394;52.522;13.622;2024-03-02T12:22:57;9.70;;;5.65;;
78143;SDS011;67394;52.522;13.622;2024-03-02T12:25:24;9.93;;;5.32;;
78143;SDS011;67394;52.522;13.622;2024-03-02T12:27:55;7.25;;;5.05;;
78143;SDS011;67394;52.522;13.622;2024-03-02T12:30:23;6.43;;;4.47;;
78143;SDS011;67394;52.522;13.622;2024-03-02T12:32:50;9.23;;;4.55;;
78143;SDS011;67394;52.522;13.622;2024-03-02T12:35:19;9.18;;;5.32;;
78143;SDS011;67394;52.522;13.622;2024-03-02T12:37:46;8.73;;;4.15;;
78143;SDS011;67394;52.522;13.622;2024-03-02T12:40:15;14.88;;;4.75;;
78143;SDS011;67394;52.522;13.622;2024-03-02T12:42:44;10.00;;;5.22;;
78143;SDS011;67394;52.522;13.622;2024-03-02T12:45:12;23.05;;;6.30;;
78143;SDS011;67394;52.522;13.622;2024-03-02T12:47:39;8.20;;;4.32;;
78143;SDS011;67394;52.522;13.622;2024-03-02T12:50:07;9.05;;;4.85;;
78143;SDS011;67394;52.522;13.622;2024-03-02T12:52:35;10.75;;;4.68;;
78143;SDS011;67394;52.522;13.622;2024-03-02T12:55:03;9.93;;;4.43;;
78143;SDS011;67394;52.522;13.622;2024-03-02T12:57:32;5.93;;;3.75;;
78143;SDS011;67394;52.522;13.622;2024-03-02T13:00:03;8.93;;;4.82;;
78143;SDS011;67394;52.522;13.622;2024-03-02T13:02:31;8.10;;;3.83;;
78143;SDS011;67394;52.522;13.622;2024-03-02T13:04:58;11.15;;;4.85;;
78143;SDS011;67394;52.522;13.622;2024-03-02T13:07:25;6.50;;;4.32;;
78143;SDS011;67394;52.522;13.622;2024-03-02T13:09:52;7.57;;;3.67;;
78143;SDS011;67394;52.522;13.622;2024-03-02T13:12:19;6.50;;;3.60;;
78143;SDS011;67394;52.522;13.622;2024-03-02T13:14:52;6.93;;;4.43;;
78143;SDS011;67394;52.522;13.622;2024-03-02T13:17:19;6.95;;;4.20;;
78143;SDS011;67394;52.522;13.622;2024-03-02T13:22:19;6.65;;;3.75;;
78143;SDS011;67394;52.522;13.622;2024-03-02T13:24:46;15.35;;;4.63;;
78143;SDS011;67394;52.522;13.622;2024-03-02T13:27:13;8.18;;;4.63;;
78143;SDS011;67394;52.522;13.622;2024-03-02T13:29:40;7.65;;;3.97;;
78143;SDS011;67394;52.522;13.622;2024-03-02T13:32:07;7.13;;;4.13;;
78143;SDS011;67394;52.522;13.622;2024-03-02T13:34:34;8.77;;;4.18;;
78143;SDS011;67394;52.522;13.622;2024-03-02T13:37:00;7.50;;;3.88;;
78143;SDS011;67394;52.522;13.622;2024-03-02T13:39:27;7.07;;;4.50;;
78143;SDS011;67394;52.522;13.622;2024-03-02T13:41:54;7.18;;;4.35;;
78143;SDS011;67394;52.522;13.622;2024-03-02T13:44:20;7.35;;;3.78;;
78143;SDS011;67394;52.522;13.622;2024-03-02T13:46:47;6.10;;;4.15;;
78143;SDS011;67394;52.522;13.622;2024-03-02T13:49:13;7.72;;;4.18;;
78143;SDS011;67394;52.522;13.622;2024-03-02T13:51:40;9.32;;;4.18;;
78143;SDS011;67394;52.522;13.622;2024-03-02T13:54:06;6.85;;;3.50;;
78143;SDS011;67394;52.522;13.622;2024-03-02T13:56:33;5.13;;;3.15;;
78143;SDS011;67394;52.522;13.622;2024-03-02T13:59:00;6.93;;;3.15;;
78143;SDS011;67394;52.522;13.622;2024-03-02T14:01:26;6.05;;;3.80;;
78143;SDS011;67394;52.522;13.622;2024-03-02T14:06:20;7.60;;;3.83;;
78143;SDS011;67394;52.522;13.622;2024-03-02T14:08:46;4.13;;;2.85;;
78143;SDS011;67394;52.522;13.622;2024-03-02T14:11:13;8.05;;;3.92;;
78143;SDS011;67394;52.522;13.622;2024-03-02T14:13:43;5.32;;;4.25;;
78143;SDS011;67394;52.522;13.622;2024-03-02T14:16:11;7.35;;;3.55;;
78143;SDS011;67394;52.522;13.622;2024-03-02T14:18:38;5.05;;;3.00;;
78143;SDS011;67394;52.522;13.622;2024-03-02T14:23:32;5.57;;;3.65;;
78143;SDS011;67394;52.522;13.622;2024-03-02T14:25:59;6.13;;;3.67;;
78143;SDS011;67394;52.522;13.622;2024-03-02T14:28:26;6.78;;;4.03;;
78143;SDS011;67394;52.522;13.622;2024-03-02T14:30:58;6.90;;;3.80;;
78143;SDS011;67394;52.522;13.622;2024-03-02T14:33:24;10.45;;;4.13;;
78143;SDS011;67394;52.522;13.622;2024-03-02T14:35:51;8.52;;;4.05;;
78143;SDS011;67394;52.522;13.622;2024-03-02T14:38:17;8.32;;;3.83;;
78143;SDS011;67394;52.522;13.622;2024-03-02T14:40:44;6.97;;;3.65;;
78143;SDS011;67394;52.522;13.622;2024-03-02T14:43:10;6.72;;;3.55;;
78143;SDS011;67394;52.522;13.622;2024-03-02T14:45:37;8.27;;;4.57;;
78143;SDS011;67394;52.522;13.622;2024-03-02T14:48:04;6.82;;;4.35;;
78143;SDS011;67394;52.522;13.622;2024-03-02T14:50:31;9.02;;;4.45;;
78143;SDS011;67394;52.522;13.622;2024-03-02T14:52:58;8.60;;;4.18;;
78143;SDS011;67394;52.522;13.622;2024-03-02T14:55:25;6.22;;;3.45;;
78143;SDS011;67394;52.522;13.622;2024-03-02T14:57:51;5.70;;;3.72;;
78143;SDS011;67394;52.522;13.622;2024-03-02T15:00:18;5.88;;;3.72;;
78143;SDS011;67394;52.522;13.622;2024-03-02T15:02:45;8.27;;;4.38;;
78143;SDS011;67394;52.522;13.622;2024-03-02T15:05:11;10.10;;;4.25;;
78143;SDS011;67394;52.522;13.622;2024-03-02T15:07:38;7.38;;;3.63;;